Time;durP1;ratioP1;P1;durP2;ratioP2;P2;SDS_P1;SDS_P2;PMS_P1;PMS_P2;Temp;Humidity;BMP_temperature;BMP_pressure;BME280_temperature;BME280_humidity;BME280_pressure;Samples;Min_cycle;Max_cycle;Signal;HPM_P1;HPM_P2
2022/08/12 00:43:03;;;;;;;5.10;4.70;;;;;;;25.52;46.01;95121.00;6163589;28;104061;-55
2022/08/12 00:49:27;;;;;;;4.93;4.53;;;;;;;25.63;45.80;95121.41;6159307;28;102922;-55
2022/08/12 00:52:33;;;;;;;5.30;4.80;;;;;;;25.66;45.54;95123.44;6162524;28;104279;-56
2022/08/12 00:55:44;;;;;;;5.00;4.60;;;;;;;26.07;44.55;95125.34;6155672;28;102998;-56
2022/08/12 00:58:50;;;;;;;4.77;4.37;;;;;;;26.06;44.79;95123.78;6159279;28;103644;-57
2022/08/12 01:01:55;;;;;;;5.33;4.90;;;;;;;26.36;43.80;95129.00;6161960;28;103716;-55
2022/08/12 01:12:00;;;;;;;4.70;4.40;;;;;;;26.25;44.25;95121.41;6161514;28;103092;-54
2022/08/12 01:15:04;;;;;;;4.73;4.40;;;;;;;26.14;44.17;95125.59;6162317;28;103032;-57
2022/08/12 01:18:08;;;;;;;4.30;3.93;;;;;;;26.10;44.20;95127.38;6140373;28;104196;-57
2022/08/12 01:21:17;;;;;;;4.93;4.63;;;;;;;25.86;44.86;95135.25;6156283;28;104060;-57
2022/08/12 01:24:43;;;;;;;4.83;4.53;;;;;;;25.73;45.15;95136.31;6148389;28;103329;-57
2022/08/12 01:27:50;;;;;;;4.57;4.27;;;;;;;25.95;44.54;95142.13;6161344;28;104450;-58
2022/08/12 01:30:55;;;;;;;4.57;4.27;;;;;;;26.01;44.36;95139.28;6150476;28;103018;-58
2022/08/12 01:34:03;;;;;;;4.50;4.20;;;;;;;25.84;44.52;95132.13;6160219;28;104537;-58
2022/08/12 01:37:08;;;;;;;4.50;4.20;;;;;;;25.95;44.14;95133.31;6161879;28;103243;-58
2022/08/12 01:40:15;;;;;;;4.27;4.07;;;;;;;26.13;44.16;95128.59;6160988;28;104431;-58
2022/08/12 01:43:40;;;;;;;5.20;4.83;;;;;;;26.27;44.28;95123.75;6156104;28;105138;-58
2022/08/12 01:46:57;;;;;;;4.90;4.50;;;;;;;26.39;43.36;95123.00;6160915;28;104453;-58
2022/08/12 01:50:17;;;;;;;4.70;4.40;;;;;;;26.39;43.63;95118.44;6161841;28;103269;-54
2022/08/12 01:53:25;;;;;;;4.13;3.93;;;;;;;26.09;44.29;95120.44;6141750;28;103165;-55
2022/08/12 01:56:35;;;;;;;4.30;3.90;;;;;;;25.81;44.78;95128.19;6158417;28;104707;-56
2022/08/12 01:59:49;;;;;;;4.30;4.00;;;;;;;25.91;44.71;95124.34;6160520;28;103264;-55
2022/08/12 02:03:03;;;;;;;4.00;3.80;;;;;;;25.55;45.87;95120.38;6160124;28;103206;-56
2022/08/12 02:14:10;;;;;;;4.43;4.13;;;;;;;25.63;45.43;95118.72;6161145;28;105314;-55
2022/08/12 02:17:31;;;;;;;4.07;3.83;;;;;;;25.31;45.99;95126.31;6149640;28;103037;-55
2022/08/12 02:21:01;;;;;;;4.00;3.80;;;;;;;25.59;45.23;95121.28;6160796;28;102756;-55
2022/08/12 02:24:07;;;;;;;4.20;3.90;;;;;;;25.66;45.05;95116.16;6159945;28;104297;-55
2022/08/12 02:27:13;;;;;;;4.10;3.80;;;;;;;25.65;44.73;95124.53;6148562;28;103189;-55
2022/08/12 02:30:20;;;;;;;3.80;3.60;;;;;;;25.86;44.44;95124.53;6160428;28;104933;-56
2022/08/12 02:33:24;;;;;;;4.13;3.83;;;;;;;26.00;44.13;95125.09;6160613;28;102756;-54
2022/08/12 02:36:28;;;;;;;4.33;4.03;;;;;;;26.13;44.07;95121.34;6159736;28;104229;-56
2022/08/12 02:39:40;;;;;;;4.57;4.27;;;;;;;26.01;44.14;95123.97;6148817;28;103349;-55
2022/08/12 02:42:51;;;;;;;4.13;3.83;;;;;;;26.24;44.17;95127.09;6160296;28;104060;-55
2022/08/12 02:46:00;;;;;;;4.93;4.57;;;;;;;26.40;43.47;95127.25;6160343;28;104159;-54
2022/08/12 02:49:05;;;;;;;5.60;5.20;;;;;;;26.43;43.48;95126.59;6152746;28;103560;-56
2022/08/12 02:52:13;;;;;;;9.90;9.10;;;;;;;26.40;43.65;95127.25;6159372;28;103018;-54
2022/08/12 02:55:20;;;;;;;6.90;6.30;;;;;;;25.95;44.77;95123.38;6159148;28;102788;-54
2022/08/12 02:58:36;;;;;;;8.03;7.37;;;;;;;25.81;45.34;95122.06;6154100;28;103882;-55
2022/08/12 03:01:48;;;;;;;24.03;21.83;;;;;;;25.49;45.72;95116.28;6147348;28;103397;-55
2022/08/12 03:04:56;;;;;;;22.50;20.40;;;;;;;25.30;46.44;95130.09;6158048;28;102951;-56
2022/08/12 03:08:03;;;;;;;17.93;16.03;;;;;;;25.60;45.27;95130.09;6157936;28;103223;-54
2022/08/12 03:11:13;;;;;;;13.30;12.00;;;;;;;25.35;45.92;95127.25;6154730;28;103259;-55
2022/08/12 03:14:17;;;;;;;42.30;38.50;;;;;;;25.15;46.61;95132.53;6154865;28;103498;-56
2022/08/12 03:17:29;;;;;;;31.87;29.03;;;;;;;25.34;46.06;95131.00;6158799;28;103244;-54
2022/08/12 03:20:39;;;;;;;68.40;62.30;;;;;;;25.37;45.64;95127.72;6159340;28;102990;-55
2022/08/12 03:23:44;;;;;;;30.20;27.53;;;;;;;25.40;45.58;95131.66;6147709;28;104345;-57
2022/08/12 03:26:48;;;;;;;15.00;11.17;;;;;;;25.19;45.84;95131.56;6147485;28;104332;-55
2022/08/12 03:29:54;;;;;;;13.47;12.30;;;;;;;25.23;45.83;95139.75;6153245;28;104391;-55
2022/08/12 03:33:01;;;;;;;10.40;9.60;;;;;;;25.11;46.13;95134.28;6159233;28;103376;-56
2022/08/12 03:36:06;;;;;;;39.90;36.30;;;;;;;25.27;46.01;95136.09;6149354;28;103187;-56
2022/08/12 03:39:22;;;;;;;13.47;12.40;;;;;;;25.31;46.12;95136.22;6152907;28;104453;-55
2022/08/12 04:03:00;;;;;;;5.97;5.17;;;;;;;24.76;47.95;95151.28;6155144;28;103130;-56
2022/08/12 04:06:08;;;;;;;5.87;5.20;;;;;;;24.89;48.82;95146.84;6156409;28;104197;-54
2022/08/12 04:09:11;;;;;;;5.77;5.17;;;;;;;25.50;46.95;95146.56;6149108;28;104025;-55
2022/08/12 04:15:44;;;;;;;6.80;5.60;;;;;;;26.18;44.96;95153.31;6155511;28;103022;-55
2022/08/12 04:18:47;;;;;;;6.13;5.73;;;;;;;26.10;46.24;95156.09;6159882;28;103266;-54
2022/08/12 04:21:54;;;;;;;7.47;6.20;;;;;;;26.20;46.48;95155.66;6147639;28;103368;-54
2022/08/12 04:25:05;;;;;;;6.60;6.00;;;;;;;26.07;47.71;95156.75;6163703;28;103022;-55
2022/08/12 04:28:10;;;;;;;4.80;4.50;;;;;;;25.88;48.15;95157.19;6163317;28;104049;-55
2022/08/12 04:31:15;;;;;;;5.30;4.77;;;;;;;25.73;49.27;95153.19;6142526;28;104096;-56
2022/08/12 04:34:19;;;;;;;5.20;4.90;;;;;;;25.54;49.26;95163.53;6152733;28;103013;-56
2022/08/12 04:37:23;;;;;;;4.37;4.07;;;;;;;25.34;49.72;95157.78;6160798;28;103175;-53
2022/08/12 04:40:29;;;;;;;5.00;4.60;;;;;;;25.38;49.52;95153.41;6162511;28;102953;-54
2022/08/12 04:43:32;;;;;;;5.07;4.57;;;;;;;25.14;50.26;95150.50;6152339;28;104338;-53
2022/08/12 04:46:55;;;;;;;5.37;4.90;;;;;;;24.92;50.79;95146.19;6163132;28;102887;-53
2022/08/12 04:49:59;;;;;;;5.80;5.30;;;;;;;24.63;51.05;95149.56;6162255;28;103054;-54
2022/08/12 04:53:05;;;;;;;6.07;5.50;;;;;;;24.43;51.64;95139.53;6160964;28;103218;-53
2022/08/12 04:56:10;;;;;;;9.83;9.13;;;;;;;24.68;50.67;95135.25;6156188;28;104153;-54
2022/08/12 04:59:15;;;;;;;16.43;14.97;;;;;;;24.60;51.67;95138.72;6162341;28;104170;-53
2022/08/12 05:02:19;;;;;;;13.73;12.63;;;;;;;24.44;51.82;95141.09;6157929;28;103038;-54
2022/08/12 05:05:25;;;;;;;9.70;9.00;;;;;;;24.78;51.17;95135.69;6148608;28;102989;-53
2022/08/12 05:08:29;;;;;;;8.80;8.13;;;;;;;25.17;50.50;95141.81;6159874;28;103218;-54
2022/08/12 05:11:32;;;;;;;7.13;6.50;;;;;;;24.99;50.76;95148.34;6161927;28;104188;-54
2022/08/12 05:14:35;;;;;;;9.30;6.80;;;;;;;25.41;49.66;95151.97;6158045;28;103894;-56
2022/08/12 05:17:40;;;;;;;7.47;5.87;;;;;;;25.37;44.93;95153.72;6138185;28;104376;-52
2022/08/12 05:20:47;;;;;;;6.93;6.00;;;;;;;25.16;50.74;95156.31;6151187;28;103475;-56
2022/08/12 05:23:53;;;;;;;6.50;6.10;;;;;;;24.97;51.15;95148.69;6153905;28;103441;-55
2022/08/12 05:26:56;;;;;;;13.07;8.30;;;;;;;25.08;50.84;95159.81;6154806;28;103343;-57
2022/08/12 05:29:59;;;;;;;8.23;7.43;;;;;;;24.81;51.76;95157.56;6122970;28;103287;-56
2022/08/12 05:33:12;;;;;;;12.03;8.93;;;;;;;24.76;52.45;95162.00;6154435;28;103158;-54
2022/08/12 05:36:18;;;;;;;22.67;15.97;;;;;;;25.06;51.44;95165.50;6143350;28;104264;-54
2022/08/12 05:39:23;;;;;;;49.03;17.60;;;;;;;25.47;50.84;95161.38;6141763;28;103541;-55
2022/08/12 05:42:26;;;;;;;17.57;13.13;;;;;;;25.10;51.68;95160.28;6152567;28;104039;-56
2022/08/12 05:45:36;;;;;;;18.57;13.70;;;;;;;24.82;52.50;95162.59;6146391;28;103529;-56
2022/08/12 05:48:48;;;;;;;78.07;35.23;;;;;;;24.74;51.36;95164.19;6138572;28;103748;-56
2022/08/12 05:51:51;;;;;;;29.47;20.20;;;;;;;24.82;51.33;95167.16;6133068;28;104566;-54
2022/08/12 05:54:56;;;;;;;35.00;27.53;;;;;;;25.23;50.12;95167.31;6153569;28;104194;-51
2022/08/12 05:58:01;;;;;;;34.17;24.40;;;;;;;25.57;49.23;95166.38;6130335;28;102989;-54
2022/08/12 06:01:05;;;;;;;40.30;23.83;;;;;;;25.76;49.52;95167.84;6146880;28;103242;-53
2022/08/12 06:04:28;;;;;;;39.33;21.03;;;;;;;25.85;48.64;95163.19;6147989;28;102850;-57
2022/08/12 06:07:33;;;;;;;13.37;12.07;;;;;;;25.00;49.29;95166.78;6141069;28;103268;-56
2022/08/12 06:10:57;;;;;;;14.40;12.03;;;;;;;24.39;50.89;95160.78;6149980;28;104908;-56
2022/08/12 06:14:00;;;;;;;11.37;10.37;;;;;;;24.26;51.18;95164.41;6141531;28;104548;-57
2022/08/12 06:17:13;;;;;;;9.83;9.03;;;;;;;24.27;51.26;95168.66;6152016;28;103360;-57
2022/08/12 06:20:17;;;;;;;9.47;8.70;;;;;;;24.23;51.22;95170.41;6145696;28;104839;-57
2022/08/12 06:23:31;;;;;;;11.47;9.00;;;;;;;24.70;50.79;95173.19;6152142;28;103414;-56
2022/08/12 06:26:36;;;;;;;8.60;8.00;;;;;;;24.99;49.87;95172.44;6149507;28;103015;-53
2022/08/12 06:29:40;;;;;;;8.53;7.93;;;;;;;24.91;49.27;95175.97;6160209;28;103707;-54
2022/08/12 06:33:03;;;;;;;29.17;8.83;;;;;;;25.02;48.98;95166.44;6159490;28;103030;-55
2022/08/12 06:36:24;;;;;;;9.80;8.67;;;;;;;25.09;48.78;95169.44;6147501;28;102814;-55
2022/08/12 06:39:35;;;;;;;9.97;9.07;;;;;;;24.79;50.55;95176.63;6159635;28;103284;-55
2022/08/12 06:42:50;;;;;;;9.87;8.33;;;;;;;24.52;51.22;95172.38;6160467;28;104059;-56
2022/08/12 06:45:56;;;;;;;10.00;9.20;;;;;;;24.46;52.19;95166.44;6158537;28;104230;-56
2022/08/12 06:49:00;;;;;;;9.97;8.77;;;;;;;24.54;52.67;95167.53;6149241;28;103147;-55
2022/08/12 06:52:03;;;;;;;10.57;9.60;;;;;;;24.45;52.77;95172.09;6158710;28;103118;-55
2022/08/12 06:55:10;;;;;;;15.40;10.30;;;;;;;24.49;53.10;95163.13;6159371;28;104070;-55
2022/08/12 06:58:15;;;;;;;10.10;9.00;;;;;;;24.35;53.98;95159.03;6153865;28;103183;-55
2022/08/12 07:01:18;;;;;;;10.63;9.37;;;;;;;24.58;53.13;95154.31;6157257;28;104198;-55
2022/08/12 07:04:21;;;;;;;9.87;8.77;;;;;;;24.49;52.79;95160.44;6160361;28;103485;-56
2022/08/12 07:07:41;;;;;;;9.93;8.87;;;;;;;24.36;52.17;95158.75;6157850;28;104096;-50
2022/08/12 07:10:56;;;;;;;10.17;8.30;;;;;;;24.68;51.88;95159.31;6147236;28;104047;-50
2022/08/12 07:14:02;;;;;;;14.50;8.23;;;;;;;24.92;51.74;95166.81;6155370;28;102971;-51
2022/08/12 07:17:15;;;;;;;22.57;8.13;;;;;;;25.12;51.16;95159.97;6160100;28;103022;-49
2022/08/12 07:20:18;;;;;;;8.17;7.33;;;;;;;25.38;51.03;95166.03;6158193;28;103130;-50
2022/08/12 07:23:42;;;;;;;10.93;7.67;;;;;;;25.84;49.63;95158.94;6133478;28;103067;-49
2022/08/12 07:26:45;;;;;;;9.13;8.10;;;;;;;26.10;50.11;95166.81;6159328;28;104054;-50
2022/08/12 07:29:49;;;;;;;8.77;7.97;;;;;;;26.30;49.55;95163.31;6159726;28;104217;-50
2022/08/12 07:33:08;;;;;;;7.70;7.10;;;;;;;26.53;48.89;95158.34;6149742;28;103343;-50
2022/08/12 07:36:13;;;;;;;7.33;6.73;;;;;;;26.67;48.71;95163.47;6158202;28;103170;-51
2022/08/12 07:39:16;;;;;;;8.67;7.97;;;;;;;26.74;48.58;95161.81;6158156;28;103080;-53
2022/08/12 07:42:20;;;;;;;9.50;8.30;;;;;;;26.86;48.00;95159.13;6157923;28;103072;-50
2022/08/12 07:45:24;;;;;;;8.63;7.73;;;;;;;26.97;47.62;95158.72;6148850;28;103230;-50
2022/08/12 07:48:28;;;;;;;8.37;7.23;;;;;;;26.40;46.72;95146.81;6159739;28;103668;-52
2022/08/12 07:51:32;;;;;;;7.00;6.30;;;;;;;26.65;46.79;95144.22;6158675;28;104354;-50
2022/08/12 07:54:35;;;;;;;6.73;6.20;;;;;;;26.90;46.18;95147.75;6157460;28;103182;-51
2022/08/12 07:57:51;;;;;;;9.63;6.97;;;;;;;26.96;46.19;95139.13;6150956;28;103339;-57
2022/08/12 08:00:59;;;;;;;35.63;32.43;;;;;;;26.58;46.24;95144.75;6162213;28;103047;-51
2022/08/12 08:07:24;;;;;;;34.90;32.00;;;;;;;26.19;47.19;95136.09;6151964;28;103039;-52
2022/08/12 08:10:28;;;;;;;25.93;23.50;;;;;;;26.58;45.76;95137.47;6161241;28;103867;-56
2022/08/12 08:13:31;;;;;;;12.93;9.53;;;;;;;26.61;46.90;95135.25;6161372;28;103163;-56
2022/08/12 08:16:36;;;;;;;9.73;8.93;;;;;;;26.44;46.65;95131.63;6163211;28;103329;-58
2022/08/12 08:19:39;;;;;;;5.97;5.53;;;;;;;26.33;46.02;95124.31;6143023;28;103268;-59
2022/08/12 08:23:06;;;;;;;7.00;6.33;;;;;;;26.41;45.90;95124.25;6162912;28;104935;-51
2022/08/12 08:26:09;;;;;;;5.80;5.30;;;;;;;26.58;45.62;95126.75;6161517;28;103357;-52
2022/08/12 08:29:14;;;;;;;5.97;5.27;;;;;;;26.76;45.84;95127.38;6157553;28;104052;-52
2022/08/12 08:32:18;;;;;;;5.47;5.17;;;;;;;26.54;43.94;95117.75;6156828;28;104819;-58
2022/08/12 08:35:22;;;;;;;5.63;4.90;;;;;;;26.27;44.36;95108.44;6161880;28;103612;-52
2022/08/12 08:38:28;;;;;;;24.43;22.17;;;;;;;26.46;44.25;95112.50;6162432;28;106565;-52
2022/08/12 08:45:18;;;;;;;6.33;5.73;;;;;;;26.79;44.35;95113.25;6151261;28;105465;-53
2022/08/12 08:48:22;;;;;;;5.97;5.43;;;;;;;27.15;43.67;95103.66;6147955;28;104070;-53
2022/08/12 08:51:25;;;;;;;6.00;5.60;;;;;;;27.38;43.29;95102.06;6150122;28;103217;-54
2022/08/12 08:54:32;;;;;;;5.80;4.97;;;;;;;27.44;42.99;95094.59;6148281;28;103989;-49
2022/08/12 08:57:35;;;;;;;6.50;5.53;;;;;;;27.60;42.96;95090.06;6154561;28;103045;-50
2022/08/12 09:00:48;;;;;;;5.10;4.63;;;;;;;27.44;42.78;95091.91;6150764;28;104183;-54
2022/08/12 09:03:53;;;;;;;6.60;6.10;;;;;;;27.46;42.09;95093.13;6141195;28;104056;-55
2022/08/12 09:07:17;;;;;;;4.03;3.73;;;;;;;27.28;40.25;95091.81;6154633;28;103115;-56
2022/08/12 09:10:40;;;;;;;4.37;4.03;;;;;;;27.30;39.98;95089.56;6139909;28;104331;-56
2022/08/12 09:13:46;;;;;;;4.73;4.13;;;;;;;27.34;40.13;95082.38;6155938;28;103148;-56
2022/08/12 09:17:12;;;;;;;4.23;3.63;;;;;;;27.13;39.48;95082.50;6147538;28;103131;-56
2022/08/12 09:20:26;;;;;;;4.30;3.90;;;;;;;26.91;39.32;95088.31;6150265;28;104498;-58
2022/08/12 09:23:33;;;;;;;6.80;4.10;;;;;;;26.84;39.92;95078.13;6154185;28;104022;-52
2022/08/12 09:26:56;;;;;;;3.93;3.60;;;;;;;26.74;40.99;95078.59;6138013;28;105324;-56
2022/08/12 09:30:02;;;;;;;4.23;3.93;;;;;;;26.73;41.07;95071.66;6152609;28;103058;-56
2022/08/12 09:33:15;;;;;;;5.37;4.93;;;;;;;26.79;40.94;95075.66;6142726;28;103995;-55
2022/08/12 09:36:41;;;;;;;5.77;5.33;;;;;;;26.88;41.50;95072.88;6151379;28;105536;-57
2022/08/12 09:40:03;;;;;;;6.13;4.93;;;;;;;26.96;42.18;95073.88;6147634;28;103679;-57
2022/08/12 09:46:55;;;;;;;4.33;4.03;;;;;;;27.18;40.88;95065.34;6149559;28;104013;-57
2022/08/12 09:49:58;;;;;;;7.63;4.90;;;;;;;27.23;40.03;95067.84;6143072;28;103824;-57
2022/08/12 09:53:12;;;;;;;4.80;4.30;;;;;;;27.18;40.15;95062.66;6151444;28;104046;-56
2022/08/12 09:56:18;;;;;;;6.63;4.80;;;;;;;27.26;40.69;95061.03;6156986;28;104128;-56
2022/08/12 09:59:41;;;;;;;5.10;4.70;;;;;;;27.33;40.22;95051.25;6151600;28;105089;-56
2022/08/12 10:03:06;;;;;;;7.40;4.97;;;;;;;27.30;39.49;95049.25;6147795;28;105248;-57
2022/08/12 10:06:29;;;;;;;5.60;5.20;;;;;;;27.25;39.41;95049.47;6156074;28;103158;-56
2022/08/12 10:09:39;;;;;;;5.00;4.60;;;;;;;27.24;39.89;95047.91;6156145;28;104051;-56
2022/08/12 10:16:43;;;;;;;5.37;4.90;;;;;;;27.25;39.74;95038.72;6156065;28;106846;-56
2022/08/12 10:19:47;;;;;;;4.60;4.30;;;;;;;27.35;39.63;95034.78;6153828;28;103073;-56
2022/08/12 10:23:00;;;;;;;4.50;4.10;;;;;;;27.38;39.25;95026.03;6142957;28;103383;-57
2022/08/12 10:29:43;;;;;;;3.70;3.50;;;;;;;27.21;38.66;95027.06;6154270;28;104142;-55
2022/08/12 10:33:06;;;;;;;4.30;4.00;;;;;;;27.06;39.28;95025.88;6128076;28;104897;-56
2022/08/12 10:36:21;;;;;;;4.30;4.00;;;;;;;27.06;39.38;95017.03;6119451;28;103191;-55
2022/08/12 10:39:43;;;;;;;4.00;3.77;;;;;;;27.07;39.75;95005.16;6130010;28;104217;-55
2022/08/12 10:46:29;;;;;;;4.70;4.40;;;;;;;26.84;40.11;95013.69;6144324;28;103291;-56
2022/08/12 10:49:35;;;;;;;4.83;4.40;;;;;;;26.71;39.32;95009.44;6154223;28;104010;-56
2022/08/12 10:52:59;;;;;;;4.73;4.37;;;;;;;26.77;39.42;95007.31;6148968;28;105065;-56
2022/08/12 10:56:02;;;;;;;5.37;5.07;;;;;;;26.89;39.23;95010.00;6153495;28;103170;-56
2022/08/12 10:59:07;;;;;;;5.60;5.00;;;;;;;26.96;38.88;95002.16;6139510;28;103533;-55
2022/08/12 11:02:14;;;;;;;5.30;4.90;;;;;;;27.05;38.50;95005.50;6131659;28;104085;-57
2022/08/12 11:05:38;;;;;;;5.70;5.30;;;;;;;27.15;38.88;95002.34;6129939;28;103097;-55
2022/08/12 11:09:01;;;;;;;5.80;5.33;;;;;;;27.14;38.00;94990.03;6144392;28;103462;-55
2022/08/12 11:12:13;;;;;;;5.87;5.33;;;;;;;26.67;38.59;94989.75;6136053;28;104053;-53
2022/08/12 11:15:38;;;;;;;5.40;4.90;;;;;;;26.97;39.10;94990.28;6150675;28;104642;-50
2022/08/12 11:19:01;;;;;;;5.10;4.70;;;;;;;27.34;38.71;94992.91;6149562;28;105506;-51
2022/08/12 11:22:04;;;;;;;5.00;4.47;;;;;;;27.52;38.54;94994.19;6129102;28;104230;-50
2022/08/12 11:25:09;;;;;;;6.60;4.33;;;;;;;27.60;38.60;94987.13;6128537;28;103439;-51
2022/08/12 11:28:14;;;;;;;5.03;4.63;;;;;;;27.68;38.37;94981.56;6128684;28;104736;-52
2022/08/12 11:31:19;;;;;;;4.80;4.40;;;;;;;27.59;38.87;94986.34;6115446;28;103209;-51
2022/08/12 11:34:22;;;;;;;4.80;4.40;;;;;;;27.50;38.71;94969.56;6133125;28;103506;-50
2022/08/12 11:37:45;;;;;;;4.93;4.40;;;;;;;27.40;39.81;94970.84;6133344;28;105014;-50
2022/08/12 11:41:03;;;;;;;4.50;4.10;;;;;;;27.37;39.73;94979.56;6137098;28;104160;-50
2022/08/12 11:44:06;;;;;;;4.70;4.37;;;;;;;27.31;39.74;94975.56;6123765;28;104575;-52
2022/08/12 11:47:31;;;;;;;4.87;4.57;;;;;;;27.25;39.75;94973.44;6151267;28;105242;-51
2022/08/12 11:50:34;;;;;;;4.63;4.33;;;;;;;27.23;40.52;94976.47;6155392;28;103046;-52
2022/08/12 11:53:44;;;;;;;5.30;4.90;;;;;;;27.24;39.89;94974.56;6126308;28;104175;-52
2022/08/12 11:57:02;;;;;;;4.47;4.17;;;;;;;27.30;40.21;94971.31;6147045;28;104024;-51
2022/08/12 12:00:25;;;;;;;4.00;3.80;;;;;;;27.44;39.66;94970.94;6153212;28;102840;-51
2022/08/12 12:03:49;;;;;;;4.47;4.20;;;;;;;27.61;39.73;94969.88;6133771;28;102968;-50
2022/08/12 12:06:57;;;;;;;4.70;4.37;;;;;;;27.68;39.30;94976.19;6134255;28;103460;-51
2022/08/12 12:10:15;;;;;;;4.40;4.13;;;;;;;27.71;39.29;94980.09;6156155;28;103073;-54
2022/08/12 12:13:19;;;;;;;4.43;4.10;;;;;;;27.75;39.46;94989.06;6154016;28;103119;-51
2022/08/12 12:16:42;;;;;;;4.50;4.10;;;;;;;27.77;39.40;94992.19;6146065;28;103315;-50
2022/08/12 12:19:54;;;;;;;5.23;4.80;;;;;;;27.82;40.21;94991.94;6156783;28;103312;-50
2022/08/12 12:22:57;;;;;;;4.43;4.13;;;;;;;27.85;39.83;94985.88;6132360;28;103197;-51
2022/08/12 12:26:01;;;;;;;4.70;4.40;;;;;;;27.84;40.18;94981.63;6137940;28;103640;-50
2022/08/12 12:29:10;;;;;;;4.50;4.20;;;;;;;27.86;40.20;94981.28;6146343;28;103434;-50
2022/08/12 12:32:33;;;;;;;5.00;4.57;;;;;;;27.73;40.16;94972.50;6153205;28;105352;-51
2022/08/12 12:35:38;;;;;;;4.40;4.03;;;;;;;27.62;40.43;94974.91;6157399;28;104201;-50
2022/08/12 12:39:01;;;;;;;4.70;4.30;;;;;;;27.54;41.09;94975.03;6150943;28;106026;-49
2022/08/12 12:42:08;;;;;;;4.73;4.43;;;;;;;27.44;40.87;94963.66;6137869;28;104721;-50
2022/08/12 12:45:33;;;;;;;5.03;4.70;;;;;;;27.38;41.14;94966.91;6137401;28;105280;-50
2022/08/12 12:48:37;;;;;;;4.97;4.50;;;;;;;27.29;41.44;94959.00;6137960;28;102974;-51
2022/08/12 12:51:48;;;;;;;4.97;4.60;;;;;;;27.20;41.59;94965.59;6128320;28;104085;-51
2022/08/12 12:55:11;;;;;;;6.30;5.30;;;;;;;27.05;41.28;94967.09;6138712;28;106267;-56
2022/08/12 12:58:16;;;;;;;6.80;6.00;;;;;;;27.02;42.45;94967.78;6138381;28;104059;-55
2022/08/12 13:01:24;;;;;;;5.23;4.83;;;;;;;27.07;42.08;94967.56;6139142;28;103271;-55
2022/08/12 13:04:34;;;;;;;5.23;4.70;;;;;;;27.16;42.76;94970.88;6157045;28;104107;-55
2022/08/12 13:07:41;;;;;;;7.23;5.20;;;;;;;27.23;42.50;94967.63;6161212;28;102972;-54
2022/08/12 13:10:59;;;;;;;5.40;4.90;;;;;;;27.23;41.95;94960.34;6162486;28;103080;-54
2022/08/12 13:14:02;;;;;;;5.27;4.77;;;;;;;27.16;42.05;94952.06;6152409;28;104868;-54
2022/08/12 13:17:15;;;;;;;5.57;5.07;;;;;;;27.28;42.32;94956.66;6161429;28;103283;-58
2022/08/12 13:20:20;;;;;;;5.40;4.97;;;;;;;27.30;41.85;94954.41;6161905;28;104098;-54
2022/08/12 13:23:44;;;;;;;5.07;4.77;;;;;;;27.35;41.92;94952.25;6161422;28;103064;-56
2022/08/12 13:26:49;;;;;;;5.17;4.70;;;;;;;27.25;41.60;94963.47;6152175;28;103767;-57
2022/08/12 13:29:53;;;;;;;5.83;4.90;;;;;;;27.11;41.97;94957.69;6161290;28;103331;-55
2022/08/12 13:32:59;;;;;;;4.97;4.57;;;;;;;27.09;42.54;94959.94;6161764;28;103286;-57
2022/08/12 13:36:03;;;;;;;5.03;4.70;;;;;;;26.95;42.43;94970.25;6152054;28;104075;-57
2022/08/12 13:39:13;;;;;;;5.10;4.80;;;;;;;26.75;43.30;94959.31;6161227;28;102804;-56
2022/08/12 13:42:18;;;;;;;5.20;4.80;;;;;;;26.76;43.41;94957.44;6162033;28;104334;-55
2022/08/12 13:45:21;;;;;;;4.90;4.57;;;;;;;26.80;43.35;94967.16;6161753;28;104139;-56
2022/08/12 13:48:24;;;;;;;4.93;4.40;;;;;;;26.73;42.59;94950.84;6151781;28;104567;-55
2022/08/12 13:51:31;;;;;;;4.10;3.80;;;;;;;26.59;43.12;94961.09;6161686;28;103087;-55
2022/08/12 13:54:46;;;;;;;5.40;4.77;;;;;;;26.64;42.77;94966.25;6161296;28;103560;-56
2022/08/12 13:58:00;;;;;;;5.30;4.80;;;;;;;26.86;42.28;94951.56;6159595;28;103819;-56
2022/08/12 14:01:04;;;;;;;3.87;3.57;;;;;;;26.76;41.50;94958.22;6155186;28;103115;-56
2022/08/12 14:04:11;;;;;;;5.90;4.50;;;;;;;26.72;42.91;94954.63;6161761;28;104156;-53
2022/08/12 14:07:14;;;;;;;5.07;4.77;;;;;;;26.83;42.77;94958.41;6146249;28;103124;-56
2022/08/12 14:10:36;;;;;;;4.80;4.50;;;;;;;26.90;42.40;94959.75;6127855;28;103203;-56
2022/08/12 14:13:40;;;;;;;4.80;4.40;;;;;;;26.69;42.51;94957.19;6136662;28;103295;-56
2022/08/12 14:17:08;;;;;;;4.07;3.87;;;;;;;26.43;43.11;94950.25;6136413;28;104958;-56
2022/08/12 14:20:15;;;;;;;4.10;3.90;;;;;;;26.56;43.01;94959.88;6140768;28;103038;-56
2022/08/12 14:23:19;;;;;;;3.87;3.67;;;;;;;26.85;42.51;94950.00;6149482;28;105752;-54
2022/08/12 14:26:44;;;;;;;4.00;3.70;;;;;;;26.70;41.75;94948.78;6160404;28;105245;-55
2022/08/12 14:29:47;;;;;;;4.73;4.43;;;;;;;26.62;41.75;94947.00;6160365;28;103004;-54
2022/08/12 14:33:10;;;;;;;4.93;4.47;;;;;;;26.50;42.35;94955.06;6151118;28;103952;-54
2022/08/12 14:36:15;;;;;;;5.57;4.27;;;;;;;26.52;41.47;94950.13;6160533;28;104155;-55
2022/08/12 14:39:18;;;;;;;4.43;4.13;;;;;;;26.44;41.57;94943.78;6160140;28;104002;-55
2022/08/12 14:42:23;;;;;;;6.77;4.13;;;;;;;26.34;42.34;94943.41;6158649;28;103191;-55
2022/08/12 14:45:28;;;;;;;4.20;3.80;;;;;;;26.32;41.69;94940.28;6147251;28;103269;-54
2022/08/12 14:48:43;;;;;;;4.10;3.70;;;;;;;26.31;42.02;94939.50;6158569;28;104440;-53
2022/08/12 14:51:47;;;;;;;4.43;4.00;;;;;;;26.35;41.52;94931.56;6158205;28;103368;-53
2022/08/12 14:55:11;;;;;;;4.17;3.93;;;;;;;26.46;41.49;94933.47;6153190;28;104973;-53
2022/08/12 14:58:36;;;;;;;4.10;3.70;;;;;;;26.49;41.48;94932.03;6159138;28;103056;-53
2022/08/12 15:01:53;;;;;;;3.67;3.47;;;;;;;26.67;40.56;94922.63;6160408;28;104134;-52
2022/08/12 15:04:57;;;;;;;4.10;3.80;;;;;;;26.36;41.03;94927.78;6159583;28;103140;-53
2022/08/12 15:08:02;;;;;;;3.50;3.30;;;;;;;26.43;41.05;94920.75;6149005;28;103540;-50
2022/08/12 15:11:12;;;;;;;3.77;3.57;;;;;;;26.62;40.54;94922.06;6159814;28;103248;-51
2022/08/12 15:14:17;;;;;;;4.40;4.10;;;;;;;26.86;40.69;94919.34;6159104;28;103518;-50
2022/08/12 15:17:21;;;;;;;3.80;3.60;;;;;;;27.03;40.32;94926.34;6157768;28;103972;-50
2022/08/12 15:20:44;;;;;;;4.30;4.00;;;;;;;27.19;40.07;94919.16;6152016;28;105455;-50
2022/08/12 15:23:47;;;;;;;4.13;3.83;;;;;;;27.24;39.72;94908.19;6158084;28;103953;-50
2022/08/12 15:26:57;;;;;;;4.27;3.90;;;;;;;27.25;39.85;94899.00;6157710;28;103954;-48
2022/08/12 15:30:04;;;;;;;4.43;4.13;;;;;;;27.15;39.68;94894.09;6148147;28;102751;-50
2022/08/12 15:33:08;;;;;;;5.00;4.57;;;;;;;27.08;39.89;94896.59;6160252;28;102963;-51
2022/08/12 15:36:18;;;;;;;4.70;4.30;;;;;;;26.96;40.37;94889.34;6159852;28;103010;-52
2022/08/12 15:39:41;;;;;;;4.37;4.17;;;;;;;26.89;40.48;94896.44;6159816;28;103008;-50
2022/08/12 15:43:04;;;;;;;4.43;4.17;;;;;;;26.79;40.18;94882.34;6149119;28;104117;-51
2022/08/12 15:46:12;;;;;;;4.13;3.83;;;;;;;26.75;40.61;94889.53;6159995;28;104032;-50
2022/08/12 15:49:18;;;;;;;3.97;3.70;;;;;;;26.71;40.17;94885.16;6159735;28;103156;-50
2022/08/12 15:52:25;;;;;;;4.17;3.97;;;;;;;26.66;40.56;94886.16;6149768;28;103715;-50
2022/08/12 15:55:31;;;;;;;3.90;3.70;;;;;;;26.71;40.40;94890.50;6159275;28;102982;-50
2022/08/12 15:58:37;;;;;;;4.57;4.27;;;;;;;26.83;40.54;94891.28;6159335;28;104045;-50
2022/08/12 16:01:42;;;;;;;3.80;3.60;;;;;;;26.93;40.55;94892.72;6159573;28;105082;-51
2022/08/12 16:04:49;;;;;;;4.97;4.00;;;;;;;27.05;40.25;94895.38;6149129;28;105331;-50
2022/08/12 16:07:52;;;;;;;4.10;3.80;;;;;;;27.13;39.89;94893.66;6158344;28;104292;-50
2022/08/12 16:10:56;;;;;;;4.43;4.13;;;;;;;27.21;39.09;94897.31;6159269;28;103199;-52
2022/08/12 16:13:59;;;;;;;4.43;4.03;;;;;;;27.09;38.83;94890.88;6158442;28;103005;-52
2022/08/12 16:17:04;;;;;;;5.00;4.60;;;;;;;26.97;39.32;94895.50;6145352;28;106828;-52
2022/08/12 16:20:19;;;;;;;4.50;4.10;;;;;;;27.02;38.91;94884.50;6158138;28;103927;-53
2022/08/12 16:23:22;;;;;;;4.67;4.37;;;;;;;26.97;38.99;94890.13;6160917;28;103080;-52